< < Back
Terminal Aerodrome Forecast


Current Version              Previous Versions:   1  2  3  4  5  6  7  8  9  

Terminal Aerodrome Forecast

506
FTUS42 KMLB 290500 RRA
TAFDAB
TAF
KDAB 290542Z 2906/2924 00000KT P6SM SKC
     FM291600 11008KT P6SM VCTS SCT040CB BKN150
     FM292000 12003KT P6SM SCT040=



Latest METAR

729
SAUS80 KWBC 291600 CCA
MTRDAB
METAR KDAB 291553Z 19006KT 10SM SCT022TCU 31/24 A3007 RMK AO2 SLP180 TCU
ALQDS CB DSNT NE T03110239


USA.gov is the U.S. government's official web portal to all federal, state and local government web resources and services.